sensor_id;sensor_type;location;lat;lon;timestamp;P1;durP1;ratioP1;P2;durP2;ratioP2
50531;SDS011;36483;37.396;-122.212;2023-05-10T00:01:49;1.88;;;0.60;;
50531;SDS011;36483;37.396;-122.212;2023-05-10T00:04:15;2.33;;;0.60;;
50531;SDS011;36483;37.396;-122.212;2023-05-10T00:06:41;1.35;;;0.50;;
50531;SDS011;36483;37.396;-122.212;2023-05-10T00:09:07;0.93;;;0.50;;
50531;SDS011;36483;37.396;-122.212;2023-05-10T00:11:33;2.95;;;0.60;;
50531;SDS011;36483;37.396;-122.212;2023-05-10T00:14:00;1.80;;;0.55;;
50531;SDS011;36483;37.396;-122.212;2023-05-10T00:16:26;0.88;;;0.50;;
50531;SDS011;36483;37.396;-122.212;2023-05-10T00:18:52;1.83;;;0.50;;
50531;SDS011;36483;37.396;-122.212;2023-05-10T00:21:18;1.15;;;0.50;;
50531;SDS011;36483;37.396;-122.212;2023-05-10T00:23:44;1.52;;;0.60;;
50531;SDS011;36483;37.396;-122.212;2023-05-10T00:26:10;3.22;;;0.60;;
50531;SDS011;36483;37.396;-122.212;2023-05-10T00:28:36;2.60;;;0.57;;
50531;SDS011;36483;37.396;-122.212;2023-05-10T00:31:03;1.20;;;0.47;;
50531;SDS011;36483;37.396;-122.212;2023-05-10T00:33:29;0.80;;;0.50;;
50531;SDS011;36483;37.396;-122.212;2023-05-10T00:35:55;1.10;;;0.47;;
50531;SDS011;36483;37.396;-122.212;2023-05-10T00:38:21;2.92;;;0.65;;
50531;SDS011;36483;37.396;-122.212;2023-05-10T00:40:48;1.73;;;0.40;;
50531;SDS011;36483;37.396;-122.212;2023-05-10T00:43:14;1.13;;;0.60;;
50531;SDS011;36483;37.396;-122.212;2023-05-10T00:45:40;1.80;;;0.68;;
50531;SDS011;36483;37.396;-122.212;2023-05-10T00:48:06;2.40;;;0.70;;
50531;SDS011;36483;37.396;-122.212;2023-05-10T00:50:33;0.80;;;0.50;;
50531;SDS011;36483;37.396;-122.212;2023-05-10T00:53:00;1.42;;;0.50;;
50531;SDS011;36483;37.396;-122.212;2023-05-10T00:55:26;3.50;;;0.60;;
50531;SDS011;36483;37.396;-122.212;2023-05-10T00:57:53;1.02;;;0.50;;
50531;SDS011;36483;37.396;-122.212;2023-05-10T01:00:19;1.17;;;0.65;;
50531;SDS011;36483;37.396;-122.212;2023-05-10T01:02:46;1.60;;;0.60;;
50531;SDS011;36483;37.396;-122.212;2023-05-10T01:05:12;2.08;;;0.60;;
50531;SDS011;36483;37.396;-122.212;2023-05-10T01:07:39;1.05;;;0.50;;
50531;SDS011;36483;37.396;-122.212;2023-05-10T01:10:06;2.05;;;0.60;;
50531;SDS011;36483;37.396;-122.212;2023-05-10T01:12:36;2.03;;;0.68;;
50531;SDS011;36483;37.396;-122.212;2023-05-10T01:15:04;3.53;;;0.70;;
50531;SDS011;36483;37.396;-122.212;2023-05-10T01:17:32;1.67;;;0.50;;
50531;SDS011;36483;37.396;-122.212;2023-05-10T01:19:58;1.75;;;0.68;;
50531;SDS011;36483;37.396;-122.212;2023-05-10T01:36:00;1.33;;;0.50;;
50531;SDS011;36483;37.396;-122.212;2023-05-10T01:41:09;1.00;;;0.60;;
50531;SDS011;36483;37.396;-122.212;2023-05-10T01:43:51;2.00;;;0.75;;
50531;SDS011;36483;37.396;-122.212;2023-05-10T01:46:38;2.75;;;0.70;;
50531;SDS011;36483;37.396;-122.212;2023-05-10T01:49:07;1.42;;;0.60;;
50531;SDS011;36483;37.396;-122.212;2023-05-10T01:51:39;2.13;;;0.65;;
50531;SDS011;36483;37.396;-122.212;2023-05-10T01:54:11;1.63;;;0.55;;
50531;SDS011;36483;37.396;-122.212;2023-05-10T01:56:39;0.80;;;0.50;;
50531;SDS011;36483;37.396;-122.212;2023-05-10T01:59:09;2.40;;;0.93;;
50531;SDS011;36483;37.396;-122.212;2023-05-10T02:01:39;1.33;;;0.57;;
50531;SDS011;36483;37.396;-122.212;2023-05-10T02:04:09;2.03;;;0.60;;
50531;SDS011;36483;37.396;-122.212;2023-05-10T02:06:35;1.80;;;0.73;;
50531;SDS011;36483;37.396;-122.212;2023-05-10T02:09:02;3.47;;;0.70;;
50531;SDS011;36483;37.396;-122.212;2023-05-10T02:11:28;3.40;;;0.75;;
50531;SDS011;36483;37.396;-122.212;2023-05-10T02:13:55;2.05;;;0.70;;
50531;SDS011;36483;37.396;-122.212;2023-05-10T02:16:23;2.20;;;0.80;;
50531;SDS011;36483;37.396;-122.212;2023-05-10T02:18:50;2.65;;;0.70;;
50531;SDS011;36483;37.396;-122.212;2023-05-10T02:21:17;2.33;;;0.80;;
50531;SDS011;36483;37.396;-122.212;2023-05-10T02:23:45;1.85;;;0.80;;
50531;SDS011;36483;37.396;-122.212;2023-05-10T02:26:12;1.23;;;0.80;;
50531;SDS011;36483;37.396;-122.212;2023-05-10T02:28:40;2.00;;;0.70;;
50531;SDS011;36483;37.396;-122.212;2023-05-10T02:31:06;1.73;;;0.60;;
50531;SDS011;36483;37.396;-122.212;2023-05-10T02:33:35;1.45;;;0.60;;
50531;SDS011;36483;37.396;-122.212;2023-05-10T02:36:02;2.42;;;0.60;;
50531;SDS011;36483;37.396;-122.212;2023-05-10T02:38:29;1.33;;;0.60;;
50531;SDS011;36483;37.396;-122.212;2023-05-10T02:40:56;2.13;;;0.80;;
50531;SDS011;36483;37.396;-122.212;2023-05-10T02:43:23;2.72;;;0.95;;
50531;SDS011;36483;37.396;-122.212;2023-05-10T02:45:50;1.45;;;0.60;;
50531;SDS011;36483;37.396;-122.212;2023-05-10T02:48:16;0.65;;;0.57;;
50531;SDS011;36483;37.396;-122.212;2023-05-10T02:50:43;2.72;;;0.70;;
50531;SDS011;36483;37.396;-122.212;2023-05-10T02:53:10;2.95;;;0.90;;
50531;SDS011;36483;37.396;-122.212;2023-05-10T02:55:40;1.63;;;0.70;;
50531;SDS011;36483;37.396;-122.212;2023-05-10T02:58:08;4.28;;;0.98;;
50531;SDS011;36483;37.396;-122.212;2023-05-10T03:00:34;2.05;;;0.80;;
50531;SDS011;36483;37.396;-122.212;2023-05-10T03:03:01;2.20;;;1.00;;
50531;SDS011;36483;37.396;-122.212;2023-05-10T03:05:27;1.75;;;0.77;;
50531;SDS011;36483;37.396;-122.212;2023-05-10T03:07:53;1.60;;;0.88;;
50531;SDS011;36483;37.396;-122.212;2023-05-10T03:10:21;2.95;;;0.95;;
50531;SDS011;36483;37.396;-122.212;2023-05-10T03:15:30;2.92;;;1.20;;
50531;SDS011;36483;37.396;-122.212;2023-05-10T03:18:03;3.15;;;0.90;;
50531;SDS011;36483;37.396;-122.212;2023-05-10T03:20:36;3.45;;;0.80;;
50531;SDS011;36483;37.396;-122.212;2023-05-10T03:25:50;3.17;;;0.82;;
50531;SDS011;36483;37.396;-122.212;2023-05-10T03:28:18;2.60;;;0.90;;
50531;SDS011;36483;37.396;-122.212;2023-05-10T03:30:44;3.47;;;1.20;;
50531;SDS011;36483;37.396;-122.212;2023-05-10T03:33:11;2.20;;;0.70;;
50531;SDS011;36483;37.396;-122.212;2023-05-10T03:35:38;1.88;;;0.95;;
50531;SDS011;36483;37.396;-122.212;2023-05-10T03:38:04;2.20;;;1.08;;
50531;SDS011;36483;37.396;-122.212;2023-05-10T03:40:30;2.15;;;0.90;;
50531;SDS011;36483;37.396;-122.212;2023-05-10T03:42:57;3.03;;;0.70;;
50531;SDS011;36483;37.396;-122.212;2023-05-10T03:45:24;2.80;;;0.90;;
50531;SDS011;36483;37.396;-122.212;2023-05-10T03:47:50;2.15;;;0.85;;
50531;SDS011;36483;37.396;-122.212;2023-05-10T03:50:16;2.10;;;1.10;;
50531;SDS011;36483;37.396;-122.212;2023-05-10T03:52:43;3.50;;;0.90;;
50531;SDS011;36483;37.396;-122.212;2023-05-10T03:55:09;1.40;;;0.65;;
50531;SDS011;36483;37.396;-122.212;2023-05-10T03:57:36;2.58;;;0.95;;
50531;SDS011;36483;37.396;-122.212;2023-05-10T04:00:03;4.25;;;0.80;;
50531;SDS011;36483;37.396;-122.212;2023-05-10T04:02:29;3.80;;;1.17;;
50531;SDS011;36483;37.396;-122.212;2023-05-10T04:04:55;3.85;;;0.77;;
50531;SDS011;36483;37.396;-122.212;2023-05-10T04:07:21;3.65;;;1.15;;
50531;SDS011;36483;37.396;-122.212;2023-05-10T04:09:48;4.82;;;1.25;;
50531;SDS011;36483;37.396;-122.212;2023-05-10T04:12:14;2.63;;;0.90;;
50531;SDS011;36483;37.396;-122.212;2023-05-10T04:14:40;3.20;;;1.10;;
50531;SDS011;36483;37.396;-122.212;2023-05-10T04:17:06;2.22;;;0.85;;
50531;SDS011;36483;37.396;-122.212;2023-05-10T04:19:32;3.30;;;0.77;;
50531;SDS011;36483;37.396;-122.212;2023-05-10T04:21:58;3.30;;;1.15;;
50531;SDS011;36483;37.396;-122.212;2023-05-10T04:24:25;1.73;;;0.80;;
50531;SDS011;36483;37.396;-122.212;2023-05-10T04:26:51;2.15;;;0.88;;
50531;SDS011;36483;37.396;-122.212;2023-05-10T04:29:17;2.92;;;0.80;;
50531;SDS011;36483;37.396;-122.212;2023-05-10T04:31:43;4.45;;;1.00;;
50531;SDS011;36483;37.396;-122.212;2023-05-10T04:34:09;3.42;;;1.10;;
50531;SDS011;36483;37.396;-122.212;2023-05-10T04:36:35;2.28;;;0.80;;
50531;SDS011;36483;37.396;-122.212;2023-05-10T04:39:02;3.55;;;1.20;;
50531;SDS011;36483;37.396;-122.212;2023-05-10T04:41:29;2.42;;;0.80;;
50531;SDS011;36483;37.396;-122.212;2023-05-10T04:43:55;2.63;;;1.00;;
50531;SDS011;36483;37.396;-122.212;2023-05-10T04:46:21;5.28;;;0.90;;
50531;SDS011;36483;37.396;-122.212;2023-05-10T04:48:47;2.38;;;1.00;;
50531;SDS011;36483;37.396;-122.212;2023-05-10T04:51:14;3.53;;;1.00;;
50531;SDS011;36483;37.396;-122.212;2023-05-10T04:53:40;1.80;;;0.80;;
50531;SDS011;36483;37.396;-122.212;2023-05-10T04:56:06;2.15;;;0.90;;
50531;SDS011;36483;37.396;-122.212;2023-05-10T04:58:32;4.45;;;1.00;;
50531;SDS011;36483;37.396;-122.212;2023-05-10T05:01:04;4.28;;;1.30;;
50531;SDS011;36483;37.396;-122.212;2023-05-10T05:03:34;3.88;;;1.00;;
50531;SDS011;36483;37.396;-122.212;2023-05-10T05:06:01;3.05;;;1.02;;
50531;SDS011;36483;37.396;-122.212;2023-05-10T05:08:27;3.08;;;0.93;;
50531;SDS011;36483;37.396;-122.212;2023-05-10T05:10:53;4.13;;;1.10;;
50531;SDS011;36483;37.396;-122.212;2023-05-10T05:13:20;1.83;;;1.02;;
50531;SDS011;36483;37.396;-122.212;2023-05-10T05:15:46;4.35;;;1.20;;
50531;SDS011;36483;37.396;-122.212;2023-05-10T05:18:12;2.45;;;1.00;;
50531;SDS011;36483;37.396;-122.212;2023-05-10T05:20:38;4.28;;;1.00;;
50531;SDS011;36483;37.396;-122.212;2023-05-10T05:23:05;3.00;;;0.80;;
50531;SDS011;36483;37.396;-122.212;2023-05-10T05:25:31;4.18;;;1.20;;
50531;SDS011;36483;37.396;-122.212;2023-05-10T05:27:57;3.83;;;1.08;;
50531;SDS011;36483;37.396;-122.212;2023-05-10T05:30:23;4.32;;;1.00;;
50531;SDS011;36483;37.396;-122.212;2023-05-10T05:32:49;2.15;;;1.02;;
50531;SDS011;36483;37.396;-122.212;2023-05-10T05:35:16;5.18;;;1.10;;
50531;SDS011;36483;37.396;-122.212;2023-05-10T05:37:42;5.07;;;1.20;;
50531;SDS011;36483;37.396;-122.212;2023-05-10T05:40:08;2.38;;;1.08;;
50531;SDS011;36483;37.396;-122.212;2023-05-10T05:42:38;4.47;;;1.30;;
50531;SDS011;36483;37.396;-122.212;2023-05-10T05:45:04;3.70;;;1.30;;
50531;SDS011;36483;37.396;-122.212;2023-05-10T05:47:30;2.95;;;0.98;;
50531;SDS011;36483;37.396;-122.212;2023-05-10T05:49:57;4.72;;;1.02;;
50531;SDS011;36483;37.396;-122.212;2023-05-10T05:52:23;3.45;;;1.05;;
50531;SDS011;36483;37.396;-122.212;2023-05-10T05:54:49;3.17;;;0.90;;
50531;SDS011;36483;37.396;-122.212;2023-05-10T05:57:15;2.33;;;1.00;;
50531;SDS011;36483;37.396;-122.212;2023-05-10T05:59:41;3.80;;;1.20;;
50531;SDS011;36483;37.396;-122.212;2023-05-10T06:02:09;2.58;;;1.00;;
50531;SDS011;36483;37.396;-122.212;2023-05-10T06:04:35;3.25;;;1.00;;
50531;SDS011;36483;37.396;-122.212;2023-05-10T06:07:02;3.42;;;0.90;;
50531;SDS011;36483;37.396;-122.212;2023-05-10T06:09:28;3.60;;;1.08;;
50531;SDS011;36483;37.396;-122.212;2023-05-10T06:11:54;3.15;;;1.15;;
50531;SDS011;36483;37.396;-122.212;2023-05-10T06:14:20;5.00;;;1.05;;
50531;SDS011;36483;37.396;-122.212;2023-05-10T06:16:47;2.78;;;1.00;;
50531;SDS011;36483;37.396;-122.212;2023-05-10T06:19:13;3.03;;;1.00;;
50531;SDS011;36483;37.396;-122.212;2023-05-10T06:21:39;3.17;;;1.20;;
50531;SDS011;36483;37.396;-122.212;2023-05-10T06:24:05;3.20;;;0.90;;
50531;SDS011;36483;37.396;-122.212;2023-05-10T06:26:32;3.28;;;1.10;;
50531;SDS011;36483;37.396;-122.212;2023-05-10T06:28:58;3.17;;;0.88;;
50531;SDS011;36483;37.396;-122.212;2023-05-10T06:31:45;3.13;;;1.00;;
50531;SDS011;36483;37.396;-122.212;2023-05-10T06:34:11;2.50;;;1.08;;
50531;SDS011;36483;37.396;-122.212;2023-05-10T06:36:38;2.13;;;1.00;;
50531;SDS011;36483;37.396;-122.212;2023-05-10T06:39:04;5.60;;;1.17;;
50531;SDS011;36483;37.396;-122.212;2023-05-10T06:41:30;1.75;;;1.00;;
50531;SDS011;36483;37.396;-122.212;2023-05-10T06:43:57;2.13;;;0.93;;
50531;SDS011;36483;37.396;-122.212;2023-05-10T06:46:23;2.67;;;0.93;;
50531;SDS011;36483;37.396;-122.212;2023-05-10T06:48:49;3.38;;;1.00;;
50531;SDS011;36483;37.396;-122.212;2023-05-10T06:51:15;1.80;;;0.90;;
50531;SDS011;36483;37.396;-122.212;2023-05-10T06:53:42;2.83;;;1.20;;
50531;SDS011;36483;37.396;-122.212;2023-05-10T06:56:08;2.65;;;0.90;;
50531;SDS011;36483;37.396;-122.212;2023-05-10T06:58:35;4.50;;;1.23;;
50531;SDS011;36483;37.396;-122.212;2023-05-10T07:01:04;2.95;;;1.10;;
50531;SDS011;36483;37.396;-122.212;2023-05-10T07:03:31;3.13;;;1.08;;
50531;SDS011;36483;37.396;-122.212;2023-05-10T07:06:01;3.45;;;1.13;;
50531;SDS011;36483;37.396;-122.212;2023-05-10T07:08:28;2.00;;;0.90;;
50531;SDS011;36483;37.396;-122.212;2023-05-10T07:11:04;1.48;;;0.85;;
50531;SDS011;36483;37.396;-122.212;2023-05-10T07:13:34;2.75;;;1.02;;
50531;SDS011;36483;37.396;-122.212;2023-05-10T07:16:01;2.42;;;1.00;;
50531;SDS011;36483;37.396;-122.212;2023-05-10T07:18:28;3.88;;;1.00;;
50531;SDS011;36483;37.396;-122.212;2023-05-10T07:20:54;2.63;;;1.10;;
50531;SDS011;36483;37.396;-122.212;2023-05-10T07:23:20;4.35;;;1.20;;
50531;SDS011;36483;37.396;-122.212;2023-05-10T07:25:47;2.35;;;0.90;;
50531;SDS011;36483;37.396;-122.212;2023-05-10T07:28:14;2.47;;;1.02;;
50531;SDS011;36483;37.396;-122.212;2023-05-10T07:30:41;3.40;;;1.20;;
50531;SDS011;36483;37.396;-122.212;2023-05-10T07:33:08;2.80;;;1.10;;
50531;SDS011;36483;37.396;-122.212;2023-05-10T07:35:35;1.90;;;1.00;;
50531;SDS011;36483;37.396;-122.212;2023-05-10T07:38:01;2.60;;;1.10;;
50531;SDS011;36483;37.396;-122.212;2023-05-10T07:40:28;2.40;;;1.10;;
50531;SDS011;36483;37.396;-122.212;2023-05-10T07:42:54;2.50;;;1.00;;
50531;SDS011;36483;37.396;-122.212;2023-05-10T07:45:21;2.63;;;1.05;;
50531;SDS011;36483;37.396;-122.212;2023-05-10T07:47:48;2.50;;;0.90;;
50531;SDS011;36483;37.396;-122.212;2023-05-10T07:50:14;2.85;;;1.40;;
50531;SDS011;36483;37.396;-122.212;2023-05-10T07:52:40;2.45;;;1.20;;
50531;SDS011;36483;37.396;-122.212;2023-05-10T07:55:07;2.15;;;1.00;;
50531;SDS011;36483;37.396;-122.212;2023-05-10T07:57:34;3.45;;;1.10;;
50531;SDS011;36483;37.396;-122.212;2023-05-10T08:00:00;2.55;;;1.10;;
50531;SDS011;36483;37.396;-122.212;2023-05-10T08:02:26;2.42;;;1.13;;
50531;SDS011;36483;37.396;-122.212;2023-05-10T08:04:52;1.77;;;0.98;;
50531;SDS011;36483;37.396;-122.212;2023-05-10T08:07:18;2.15;;;0.90;;
50531;SDS011;36483;37.396;-122.212;2023-05-10T08:09:45;2.28;;;1.02;;
50531;SDS011;36483;37.396;-122.212;2023-05-10T08:12:11;1.95;;;0.80;;
50531;SDS011;36483;37.396;-122.212;2023-05-10T08:14:37;2.25;;;1.10;;
50531;SDS011;36483;37.396;-122.212;2023-05-10T08:17:03;1.77;;;0.80;;
50531;SDS011;36483;37.396;-122.212;2023-05-10T08:19:29;3.55;;;1.17;;
50531;SDS011;36483;37.396;-122.212;2023-05-10T08:21:55;3.50;;;1.00;;
50531;SDS011;36483;37.396;-122.212;2023-05-10T08:24:22;2.47;;;1.02;;
50531;SDS011;36483;37.396;-122.212;2023-05-10T08:26:48;1.67;;;1.00;;
50531;SDS011;36483;37.396;-122.212;2023-05-10T08:29:15;3.28;;;1.00;;
50531;SDS011;36483;37.396;-122.212;2023-05-10T08:31:41;2.95;;;1.05;;
50531;SDS011;36483;37.396;-122.212;2023-05-10T08:34:07;3.47;;;1.15;;
50531;SDS011;36483;37.396;-122.212;2023-05-10T08:36:33;2.72;;;1.10;;
50531;SDS011;36483;37.396;-122.212;2023-05-10T08:39:00;2.95;;;0.93;;
50531;SDS011;36483;37.396;-122.212;2023-05-10T08:41:26;2.58;;;1.17;;
50531;SDS011;36483;37.396;-122.212;2023-05-10T08:43:53;2.95;;;1.00;;
50531;SDS011;36483;37.396;-122.212;2023-05-10T08:46:21;2.42;;;0.90;;
50531;SDS011;36483;37.396;-122.212;2023-05-10T08:48:48;2.35;;;1.00;;
50531;SDS011;36483;37.396;-122.212;2023-05-10T08:51:19;2.45;;;1.20;;
50531;SDS011;36483;37.396;-122.212;2023-05-10T08:53:49;4.93;;;0.95;;
50531;SDS011;36483;37.396;-122.212;2023-05-10T08:56:15;4.00;;;1.30;;
50531;SDS011;36483;37.396;-122.212;2023-05-10T08:58:43;2.42;;;0.93;;
50531;SDS011;36483;37.396;-122.212;2023-05-10T09:01:09;2.63;;;1.10;;
50531;SDS011;36483;37.396;-122.212;2023-05-10T09:03:35;1.33;;;0.90;;
50531;SDS011;36483;37.396;-122.212;2023-05-10T09:06:04;2.00;;;1.00;;
50531;SDS011;36483;37.396;-122.212;2023-05-10T09:08:30;2.90;;;1.08;;
50531;SDS011;36483;37.396;-122.212;2023-05-10T09:10:56;3.83;;;0.98;;
50531;SDS011;36483;37.396;-122.212;2023-05-10T09:13:23;1.67;;;0.82;;
50531;SDS011;36483;37.396;-122.212;2023-05-10T09:15:49;2.85;;;1.00;;
50531;SDS011;36483;37.396;-122.212;2023-05-10T09:18:16;2.28;;;0.93;;
50531;SDS011;36483;37.396;-122.212;2023-05-10T09:20:42;3.38;;;1.00;;
50531;SDS011;36483;37.396;-122.212;2023-05-10T09:23:08;2.65;;;1.00;;
50531;SDS011;36483;37.396;-122.212;2023-05-10T09:25:34;2.90;;;1.10;;
50531;SDS011;36483;37.396;-122.212;2023-05-10T09:28:02;1.80;;;0.95;;
50531;SDS011;36483;37.396;-122.212;2023-05-10T09:30:34;1.90;;;1.08;;
50531;SDS011;36483;37.396;-122.212;2023-05-10T09:33:01;2.05;;;1.08;;
50531;SDS011;36483;37.396;-122.212;2023-05-10T09:35:28;1.73;;;0.82;;
50531;SDS011;36483;37.396;-122.212;2023-05-10T09:37:58;2.63;;;0.90;;
50531;SDS011;36483;37.396;-122.212;2023-05-10T09:40:26;2.17;;;1.20;;
50531;SDS011;36483;37.396;-122.212;2023-05-10T09:42:57;3.67;;;1.20;;
50531;SDS011;36483;37.396;-122.212;2023-05-10T09:45:25;1.10;;;0.77;;
50531;SDS011;36483;37.396;-122.212;2023-05-10T09:47:52;4.00;;;1.20;;
50531;SDS011;36483;37.396;-122.212;2023-05-10T09:50:19;2.03;;;0.77;;
50531;SDS011;36483;37.396;-122.212;2023-05-10T09:52:46;3.00;;;1.13;;
50531;SDS011;36483;37.396;-122.212;2023-05-10T09:55:19;2.63;;;1.00;;
50531;SDS011;36483;37.396;-122.212;2023-05-10T09:57:47;1.48;;;0.90;;
50531;SDS011;36483;37.396;-122.212;2023-05-10T10:00:18;3.35;;;0.90;;
50531;SDS011;36483;37.396;-122.212;2023-05-10T10:02:45;2.40;;;1.00;;
50531;SDS011;36483;37.396;-122.212;2023-05-10T10:05:13;2.08;;;1.00;;
50531;SDS011;36483;37.396;-122.212;2023-05-10T10:07:39;1.80;;;0.90;;
50531;SDS011;36483;37.396;-122.212;2023-05-10T10:10:06;3.03;;;1.00;;
50531;SDS011;36483;37.396;-122.212;2023-05-10T10:12:36;1.27;;;0.80;;
50531;SDS011;36483;37.396;-122.212;2023-05-10T10:15:04;1.58;;;0.90;;
50531;SDS011;36483;37.396;-122.212;2023-05-10T10:17:31;1.42;;;0.90;;
50531;SDS011;36483;37.396;-122.212;2023-05-10T10:19:58;2.95;;;0.90;;
50531;SDS011;36483;37.396;-122.212;2023-05-10T10:22:25;3.58;;;1.05;;
50531;SDS011;36483;37.396;-122.212;2023-05-10T10:24:51;2.47;;;1.00;;
50531;SDS011;36483;37.396;-122.212;2023-05-10T10:27:28;3.45;;;0.90;;
50531;SDS011;36483;37.396;-122.212;2023-05-10T10:35:13;2.92;;;1.10;;
50531;SDS011;36483;37.396;-122.212;2023-05-10T10:37:44;1.63;;;1.00;;
50531;SDS011;36483;37.396;-122.212;2023-05-10T10:40:27;2.80;;;1.23;;
50531;SDS011;36483;37.396;-122.212;2023-05-10T10:42:54;3.33;;;0.98;;
50531;SDS011;36483;37.396;-122.212;2023-05-10T10:45:21;1.73;;;0.80;;
50531;SDS011;36483;37.396;-122.212;2023-05-10T10:47:48;2.45;;;1.10;;
50531;SDS011;36483;37.396;-122.212;2023-05-10T10:50:19;2.75;;;1.00;;
50531;SDS011;36483;37.396;-122.212;2023-05-10T10:52:45;2.08;;;1.00;;
50531;SDS011;36483;37.396;-122.212;2023-05-10T10:55:16;2.13;;;0.98;;
50531;SDS011;36483;37.396;-122.212;2023-05-10T10:57:45;2.13;;;0.80;;
50531;SDS011;36483;37.396;-122.212;2023-05-10T11:03:05;2.55;;;0.80;;
50531;SDS011;36483;37.396;-122.212;2023-05-10T11:05:42;2.38;;;0.90;;
50531;SDS011;36483;37.396;-122.212;2023-05-10T11:08:13;2.03;;;0.90;;
50531;SDS011;36483;37.396;-122.212;2023-05-10T11:10:54;2.35;;;0.90;;
50531;SDS011;36483;37.396;-122.212;2023-05-10T11:13:40;1.75;;;0.88;;
50531;SDS011;36483;37.396;-122.212;2023-05-10T11:16:12;2.03;;;0.85;;
50531;SDS011;36483;37.396;-122.212;2023-05-10T11:18:58;1.95;;;1.00;;
50531;SDS011;36483;37.396;-122.212;2023-05-10T11:21:29;2.65;;;0.90;;
50531;SDS011;36483;37.396;-122.212;2023-05-10T11:23:56;1.60;;;0.90;;
50531;SDS011;36483;37.396;-122.212;2023-05-10T11:26:24;3.72;;;1.13;;
50531;SDS011;36483;37.396;-122.212;2023-05-10T11:28:52;2.78;;;1.10;;
50531;SDS011;36483;37.396;-122.212;2023-05-10T11:31:23;2.38;;;1.10;;
50531;SDS011;36483;37.396;-122.212;2023-05-10T11:33:52;3.35;;;1.00;;
50531;SDS011;36483;37.396;-122.212;2023-05-10T11:36:26;1.63;;;0.80;;
50531;SDS011;36483;37.396;-122.212;2023-05-10T11:38:53;1.97;;;0.90;;
50531;SDS011;36483;37.396;-122.212;2023-05-10T11:41:20;2.95;;;1.00;;
50531;SDS011;36483;37.396;-122.212;2023-05-10T11:43:48;1.95;;;0.95;;
50531;SDS011;36483;37.396;-122.212;2023-05-10T11:46:15;0.98;;;0.80;;
50531;SDS011;36483;37.396;-122.212;2023-05-10T11:48:43;3.20;;;1.00;;
50531;SDS011;36483;37.396;-122.212;2023-05-10T11:51:10;2.83;;;1.20;;
50531;SDS011;36483;37.396;-122.212;2023-05-10T11:53:36;2.60;;;1.13;;
50531;SDS011;36483;37.396;-122.212;2023-05-10T11:56:04;2.65;;;1.10;;
50531;SDS011;36483;37.396;-122.212;2023-05-10T11:58:33;1.95;;;1.00;;
50531;SDS011;36483;37.396;-122.212;2023-05-10T12:01:00;3.28;;;1.10;;
50531;SDS011;36483;37.396;-122.212;2023-05-10T12:03:26;2.28;;;1.00;;
50531;SDS011;36483;37.396;-122.212;2023-05-10T12:05:53;1.80;;;0.98;;
50531;SDS011;36483;37.396;-122.212;2023-05-10T12:08:21;3.38;;;1.10;;
50531;SDS011;36483;37.396;-122.212;2023-05-10T12:10:51;1.45;;;1.05;;
50531;SDS011;36483;37.396;-122.212;2023-05-10T12:13:19;2.85;;;1.00;;
50531;SDS011;36483;37.396;-122.212;2023-05-10T12:15:46;2.38;;;1.02;;
50531;SDS011;36483;37.396;-122.212;2023-05-10T12:18:12;2.08;;;0.90;;
50531;SDS011;36483;37.396;-122.212;2023-05-10T12:20:39;1.92;;;0.98;;
50531;SDS011;36483;37.396;-122.212;2023-05-10T12:23:08;4.65;;;1.42;;
50531;SDS011;36483;37.396;-122.212;2023-05-10T12:25:36;1.77;;;1.00;;
50531;SDS011;36483;37.396;-122.212;2023-05-10T12:28:04;4.40;;;1.05;;
50531;SDS011;36483;37.396;-122.212;2023-05-10T12:30:32;3.30;;;1.05;;
50531;SDS011;36483;37.396;-122.212;2023-05-10T12:32:59;2.20;;;1.00;;
50531;SDS011;36483;37.396;-122.212;2023-05-10T12:35:29;3.00;;;1.20;;
50531;SDS011;36483;37.396;-122.212;2023-05-10T12:37:56;5.30;;;1.08;;
50531;SDS011;36483;37.396;-122.212;2023-05-10T12:40:22;2.85;;;1.00;;
50531;SDS011;36483;37.396;-122.212;2023-05-10T12:42:48;3.65;;;1.00;;
50531;SDS011;36483;37.396;-122.212;2023-05-10T12:45:15;5.88;;;1.20;;
50531;SDS011;36483;37.396;-122.212;2023-05-10T12:47:43;3.03;;;1.20;;
50531;SDS011;36483;37.396;-122.212;2023-05-10T12:50:09;5.15;;;1.23;;
50531;SDS011;36483;37.396;-122.212;2023-05-10T12:52:36;3.85;;;1.20;;
50531;SDS011;36483;37.396;-122.212;2023-05-10T12:55:02;2.80;;;1.00;;
50531;SDS011;36483;37.396;-122.212;2023-05-10T12:57:28;2.70;;;1.10;;
50531;SDS011;36483;37.396;-122.212;2023-05-10T12:59:55;2.97;;;1.08;;
50531;SDS011;36483;37.396;-122.212;2023-05-10T13:02:21;2.72;;;1.13;;
50531;SDS011;36483;37.396;-122.212;2023-05-10T13:04:48;4.28;;;1.35;;
50531;SDS011;36483;37.396;-122.212;2023-05-10T13:07:14;3.63;;;1.20;;
50531;SDS011;36483;37.396;-122.212;2023-05-10T13:09:41;2.78;;;1.50;;
50531;SDS011;36483;37.396;-122.212;2023-05-10T13:12:07;3.55;;;1.30;;
50531;SDS011;36483;37.396;-122.212;2023-05-10T13:14:33;3.22;;;1.20;;
50531;SDS011;36483;37.396;-122.212;2023-05-10T13:16:59;4.15;;;1.20;;
50531;SDS011;36483;37.396;-122.212;2023-05-10T13:19:25;4.10;;;1.20;;
50531;SDS011;36483;37.396;-122.212;2023-05-10T13:21:51;3.78;;;1.05;;
50531;SDS011;36483;37.396;-122.212;2023-05-10T13:24:17;3.80;;;1.38;;
50531;SDS011;36483;37.396;-122.212;2023-05-10T13:26:44;2.65;;;1.20;;
50531;SDS011;36483;37.396;-122.212;2023-05-10T13:29:10;4.95;;;1.20;;
50531;SDS011;36483;37.396;-122.212;2023-05-10T13:31:36;3.25;;;1.02;;
50531;SDS011;36483;37.396;-122.212;2023-05-10T13:34:03;6.15;;;1.52;;
50531;SDS011;36483;37.396;-122.212;2023-05-10T13:36:30;3.05;;;1.40;;
50531;SDS011;36483;37.396;-122.212;2023-05-10T13:38:56;2.58;;;1.10;;
50531;SDS011;36483;37.396;-122.212;2023-05-10T13:41:22;3.60;;;1.30;;
50531;SDS011;36483;37.396;-122.212;2023-05-10T13:43:48;5.22;;;1.83;;
50531;SDS011;36483;37.396;-122.212;2023-05-10T13:46:15;4.40;;;1.40;;
50531;SDS011;36483;37.396;-122.212;2023-05-10T13:48:41;3.85;;;1.30;;
50531;SDS011;36483;37.396;-122.212;2023-05-10T13:51:07;4.82;;;1.45;;
50531;SDS011;36483;37.396;-122.212;2023-05-10T13:53:33;4.07;;;1.40;;
50531;SDS011;36483;37.396;-122.212;2023-05-10T13:55:59;6.05;;;1.60;;
50531;SDS011;36483;37.396;-122.212;2023-05-10T13:58:25;4.55;;;1.48;;
50531;SDS011;36483;37.396;-122.212;2023-05-10T14:00:51;4.10;;;1.50;;
50531;SDS011;36483;37.396;-122.212;2023-05-10T14:03:18;5.30;;;1.40;;
50531;SDS011;36483;37.396;-122.212;2023-05-10T14:05:44;6.50;;;1.50;;
50531;SDS011;36483;37.396;-122.212;2023-05-10T14:08:10;7.20;;;1.55;;
50531;SDS011;36483;37.396;-122.212;2023-05-10T14:10:38;7.57;;;1.83;;
50531;SDS011;36483;37.396;-122.212;2023-05-10T14:13:04;3.85;;;1.50;;
50531;SDS011;36483;37.396;-122.212;2023-05-10T14:15:31;2.13;;;1.33;;
50531;SDS011;36483;37.396;-122.212;2023-05-10T14:17:57;4.88;;;1.73;;
50531;SDS011;36483;37.396;-122.212;2023-05-10T14:20:23;4.20;;;1.48;;
50531;SDS011;36483;37.396;-122.212;2023-05-10T14:22:49;4.35;;;1.75;;
50531;SDS011;36483;37.396;-122.212;2023-05-10T14:25:16;5.32;;;1.73;;
50531;SDS011;36483;37.396;-122.212;2023-05-10T14:27:42;5.53;;;1.80;;
50531;SDS011;36483;37.396;-122.212;2023-05-10T14:30:08;7.53;;;1.65;;
50531;SDS011;36483;37.396;-122.212;2023-05-10T14:32:34;5.47;;;1.67;;
50531;SDS011;36483;37.396;-122.212;2023-05-10T14:35:02;4.22;;;1.60;;
50531;SDS011;36483;37.396;-122.212;2023-05-10T14:37:28;2.72;;;1.73;;
50531;SDS011;36483;37.396;-122.212;2023-05-10T14:39:54;8.05;;;1.98;;